createdAt,value
2022-07-31T06:37:42.812Z,7.40
2022-07-31T06:40:31.456Z,8.95
2022-07-31T06:43:52.236Z,7.28
2022-07-31T06:46:59.582Z,7.88
2022-07-31T06:50:15.774Z,6.90
2022-07-31T06:53:16.438Z,7.80
2022-07-31T06:56:05.516Z,7.55
2022-07-31T06:58:55.255Z,6.60
2022-07-31T07:01:44.108Z,6.35
2022-07-31T07:04:58.526Z,8.30
2022-07-31T07:07:41.956Z,6.78
2022-07-31T07:10:32.352Z,8.27
2022-07-31T07:13:20.846Z,5.95
2022-07-31T07:16:12.032Z,6.82
2022-07-31T07:19:01.969Z,7.53
2022-07-31T07:21:50.586Z,6.70
2022-07-31T07:24:39.128Z,6.80
2022-07-31T07:27:32.934Z,7.38
2022-07-31T07:30:21.389Z,6.53
2022-07-31T07:33:09.796Z,7.43
2022-07-31T07:35:59.084Z,6.55
2022-07-31T07:38:47.711Z,5.30
2022-07-31T07:41:38.503Z,4.70
2022-07-31T07:44:28.841Z,6.20
2022-07-31T07:47:17.373Z,6.57
2022-07-31T07:50:07.297Z,4.30
2022-07-31T07:53:40.733Z,5.18
2022-07-31T07:57:18.556Z,6.78
2022-07-31T08:00:27.481Z,5.60
2022-07-31T08:06:25.946Z,8.52
2022-07-31T08:09:14.641Z,7.53
2022-07-31T08:12:28.380Z,7.75
2022-07-31T08:31:53.236Z,8.85
2022-07-31T08:35:10.549Z,8.95
2022-07-31T08:38:03.908Z,8.13
2022-07-31T08:40:59.498Z,7.68
2022-07-31T08:44:42.420Z,7.45
2022-07-31T08:47:34.351Z,7.13
2022-07-31T08:51:08.662Z,7.28
2022-07-31T08:54:16.305Z,6.38
2022-07-31T08:57:06.219Z,6.40
2022-07-31T09:00:02.798Z,5.15
2022-07-31T09:06:23.362Z,4.55
2022-07-31T09:09:12.078Z,4.43
2022-07-31T09:16:50.320Z,4.50
2022-07-31T09:19:53.431Z,4.28
2022-07-31T09:23:47.742Z,4.72
2022-07-31T09:32:57.775Z,3.67
2022-07-31T09:36:07.909Z,3.67
2022-07-31T09:39:04.140Z,5.20
2022-07-31T09:42:01.572Z,3.60
2022-07-31T09:45:25.808Z,3.92
2022-07-31T09:48:26.276Z,3.40
2022-07-31T09:51:17.769Z,3.70
2022-07-31T09:54:08.589Z,3.25
2022-07-31T09:57:29.515Z,3.35
2022-07-31T10:00:23.010Z,3.10
2022-07-31T10:06:39.082Z,3.63
2022-07-31T10:09:31.820Z,4.63
2022-07-31T10:12:50.764Z,4.80
2022-07-31T10:15:41.920Z,4.70
2022-07-31T10:19:00.919Z,3.30
2022-07-31T10:22:23.959Z,3.22
2022-07-31T10:25:21.008Z,3.78
2022-07-31T10:28:09.988Z,5.93
2022-07-31T10:30:59.219Z,4.28
2022-07-31T10:33:49.138Z,3.72
2022-07-31T10:37:04.410Z,5.90
2022-07-31T10:40:34.617Z,3.20
2022-07-31T10:43:28.962Z,3.33
2022-07-31T10:46:46.738Z,3.55
2022-07-31T10:49:50.723Z,2.63
2022-07-31T10:52:48.297Z,4.50
2022-07-31T10:55:38.205Z,4.88
2022-07-31T10:58:47.703Z,4.47
2022-07-31T11:02:05.621Z,3.58
2022-07-31T11:05:11.575Z,4.90
2022-07-31T11:08:18.763Z,4.43
2022-07-31T11:11:36.795Z,4.50
2022-07-31T11:14:44.439Z,4.28
2022-07-31T11:18:22.027Z,3.45
2022-07-31T11:21:22.728Z,3.65
2022-07-31T11:24:18.278Z,3.67
2022-07-31T11:27:08.673Z,5.90
2022-07-31T11:30:10.614Z,3.90
2022-07-31T11:33:02.064Z,3.50
2022-07-31T11:35:50.584Z,5.28
2022-07-31T11:38:40.521Z,3.40
2022-07-31T11:41:30.856Z,3.90
2022-07-31T11:44:30.907Z,3.50
2022-07-31T11:48:09.529Z,3.00
2022-07-31T11:50:30.676Z,4.65
2022-07-31T11:53:21.080Z,3.88
2022-07-31T11:56:09.962Z,3.40
2022-07-31T11:58:59.505Z,3.28
2022-07-31T12:01:49.792Z,2.58
2022-07-31T12:04:39.429Z,2.83
2022-07-31T12:07:29.386Z,2.72
2022-07-31T12:11:35.197Z,3.05
2022-07-31T13:18:46.700Z,2.47
2022-07-31T13:21:42.356Z,2.42
2022-07-31T13:24:39.341Z,2.90
2022-07-31T13:47:50.610Z,3.50
2022-07-31T13:51:07.586Z,5.13
2022-07-31T13:59:09.285Z,7.15
2022-07-31T14:02:04.241Z,5.88
2022-07-31T14:24:36.192Z,2.60
2022-07-31T14:27:24.689Z,4.07
2022-07-31T15:18:31.434Z,3.95
2022-07-31T15:21:21.370Z,2.88
2022-07-31T16:12:32.589Z,8.88
2022-07-31T16:15:21.968Z,6.88
2022-07-31T16:18:18.051Z,3.80
2022-07-31T16:21:07.279Z,3.63
2022-07-31T16:23:55.712Z,3.60
2022-07-31T16:26:44.164Z,4.57
2022-07-31T16:29:59.469Z,4.97
2022-07-31T16:32:48.407Z,5.55
2022-07-31T16:35:36.926Z,4.68
2022-07-31T16:38:25.744Z,4.32
2022-07-31T16:41:14.317Z,5.57
2022-07-31T16:44:03.129Z,4.47
2022-07-31T16:46:55.035Z,4.57
2022-07-31T16:49:44.938Z,6.15
2022-07-31T16:52:33.528Z,8.57
2022-07-31T16:55:59.485Z,5.60
2022-07-31T16:58:30.892Z,6.95
2022-07-31T17:01:54.045Z,7.82
2022-07-31T17:04:29.944Z,8.10
2022-07-31T17:07:18.447Z,9.32
2022-07-31T17:10:08.232Z,8.68
2022-07-31T17:12:56.966Z,9.93
2022-07-31T17:15:45.603Z,10.23
2022-07-31T17:18:34.204Z,9.18
2022-07-31T17:21:51.279Z,9.85
2022-07-31T17:24:40.369Z,10.40
2022-07-31T17:27:29.708Z,11.20
2022-07-31T17:30:19.948Z,9.85
2022-07-31T17:33:08.456Z,10.35
2022-07-31T17:35:57.250Z,11.50
2022-07-31T17:38:47.380Z,12.52
2022-07-31T17:41:36.156Z,13.15
2022-07-31T17:44:24.552Z,13.80
2022-07-31T17:47:14.438Z,11.63
2022-07-31T17:50:03.277Z,12.65
2022-07-31T17:52:51.912Z,13.77
2022-07-31T17:55:41.930Z,11.52
2022-07-31T17:58:31.129Z,11.77
2022-07-31T18:01:19.907Z,10.55
2022-07-31T18:04:08.560Z,10.60
2022-07-31T18:06:59.049Z,10.32
2022-07-31T18:09:47.560Z,8.90
2022-07-31T18:12:56.955Z,8.27
2022-07-31T18:15:46.439Z,9.82
2022-07-31T18:18:35.217Z,8.35
2022-07-31T18:21:23.624Z,7.47
2022-07-31T18:24:12.260Z,7.68
2022-07-31T18:27:00.947Z,6.22
2022-07-31T18:29:55.966Z,7.88
2022-07-31T18:32:44.973Z,7.15
2022-07-31T18:35:33.440Z,7.63
2022-07-31T18:38:21.886Z,6.05
2022-07-31T18:41:10.531Z,5.28
2022-07-31T18:43:59.042Z,6.18
2022-07-31T18:46:49.081Z,6.13
2022-07-31T18:50:58.773Z,5.45
2022-07-31T18:52:46.034Z,5.32
2022-07-31T18:55:34.463Z,6.50
2022-07-31T18:58:22.937Z,6.55
2022-07-31T19:01:11.464Z,5.15
2022-07-31T19:04:01.434Z,5.57
2022-07-31T19:06:53.915Z,6.05
2022-07-31T19:09:42.899Z,7.85
2022-07-31T19:12:31.516Z,6.72
2022-07-31T19:15:20.000Z,7.60
2022-07-31T19:18:08.439Z,5.43
2022-07-31T19:21:22.879Z,5.82
2022-07-31T19:24:10.550Z,6.75
2022-07-31T19:26:59.074Z,8.13
2022-07-31T19:29:47.737Z,6.43
2022-07-31T19:32:38.126Z,6.85
2022-07-31T19:35:26.793Z,7.68
2022-07-31T19:38:16.966Z,5.82
2022-07-31T19:41:05.815Z,5.78
2022-07-31T19:43:54.368Z,5.88
2022-07-31T19:46:43.011Z,9.60
2022-07-31T19:49:34.045Z,6.43
2022-07-31T19:52:24.978Z,5.95
2022-07-31T19:55:17.263Z,6.10
2022-07-31T19:58:05.971Z,9.90
2022-07-31T20:00:54.674Z,8.65
2022-07-31T20:03:43.511Z,8.30
2022-07-31T20:06:32.230Z,10.65
2022-07-31T20:09:21.799Z,6.65
2022-07-31T20:12:13.260Z,7.80
2022-07-31T20:15:01.802Z,6.80
2022-07-31T20:17:50.499Z,5.72
2022-07-31T20:20:40.409Z,8.57
2022-07-31T20:23:29.332Z,9.27
2022-07-31T20:26:17.837Z,8.55
2022-07-31T20:29:07.889Z,10.15
2022-07-31T20:31:56.365Z,8.48
2022-07-31T20:34:44.973Z,11.30
2022-07-31T20:37:34.146Z,10.15
2022-07-31T20:40:23.649Z,10.70
2022-07-31T20:43:13.301Z,6.88
2022-07-31T20:46:03.814Z,13.05
2022-07-31T20:48:52.622Z,9.95
2022-07-31T20:51:41.475Z,10.15
2022-07-31T20:54:34.449Z,9.32
2022-07-31T20:57:23.572Z,8.82
2022-07-31T21:00:13.190Z,10.68
2022-07-31T21:03:02.989Z,8.98
2022-07-31T21:05:51.618Z,10.73
2022-07-31T21:08:40.925Z,10.82
2022-07-31T21:11:31.204Z,10.25
2022-07-31T21:14:20.245Z,10.57
2022-07-31T21:17:08.911Z,9.65
2022-07-31T21:19:59.090Z,9.27
2022-07-31T21:22:47.546Z,9.38
2022-07-31T21:25:36.778Z,9.13
2022-07-31T21:28:27.948Z,8.68
2022-07-31T21:31:17.395Z,6.90
2022-07-31T21:34:06.120Z,8.80
2022-07-31T21:36:56.867Z,15.13
2022-07-31T21:39:49.171Z,8.52
2022-07-31T21:42:40.251Z,11.32
2022-07-31T21:45:49.740Z,11.15
2022-07-31T21:48:42.915Z,11.38
2022-07-31T21:51:32.700Z,11.98
2022-07-31T21:54:23.084Z,9.70
2022-07-31T21:57:11.788Z,7.97
2022-07-31T22:00:00.978Z,9.40
2022-07-31T22:02:49.686Z,8.93
2022-07-31T22:05:55.970Z,8.10
2022-07-31T22:08:44.782Z,8.82
2022-07-31T22:11:35.701Z,13.98
2022-07-31T22:14:24.678Z,9.07
2022-07-31T22:17:13.227Z,9.07
2022-07-31T22:20:02.446Z,8.32
2022-07-31T22:22:51.795Z,8.68
2022-07-31T22:25:40.894Z,10.35
2022-07-31T22:28:31.139Z,11.27
2022-07-31T22:31:20.133Z,10.05
2022-07-31T22:34:09.094Z,10.98
2022-07-31T22:36:57.860Z,9.98
2022-07-31T22:39:46.531Z,10.25
2022-07-31T22:42:35.407Z,11.52
2022-07-31T22:45:25.536Z,10.90
2022-07-31T22:48:17.475Z,13.70
2022-07-31T22:51:06.548Z,11.18
2022-07-31T22:53:54.954Z,11.77
2022-07-31T22:56:43.473Z,12.43
2022-07-31T22:59:32.022Z,12.88
2022-07-31T23:02:24.609Z,14.32
2022-07-31T23:05:13.237Z,13.43
2022-07-31T23:08:01.989Z,14.27
2022-07-31T23:10:50.616Z,14.85
2022-07-31T23:13:39.136Z,13.02
2022-07-31T23:16:27.889Z,12.63
2022-07-31T23:19:18.013Z,13.95
2022-07-31T23:22:07.155Z,12.23
2022-07-31T23:24:55.856Z,17.80
2022-07-31T23:27:44.300Z,13.85
2022-07-31T23:30:32.956Z,13.45
2022-07-31T23:33:21.496Z,14.82
2022-07-31T23:36:11.508Z,13.80
2022-07-31T23:39:00.240Z,14.65
2022-07-31T23:42:06.812Z,14.23
2022-07-31T23:44:55.468Z,15.95
2022-07-31T23:47:46.862Z,15.05
2022-07-31T23:50:35.585Z,16.35
2022-07-31T23:53:25.654Z,14.20
2022-07-31T23:56:19.493Z,14.02
2022-07-31T23:59:08.333Z,16.20
